Time;durP1;ratioP1;P1;durP2;ratioP2;P2;SDS_P1;SDS_P2;PMS_P1;PMS_P2;Temp;Humidity;BMP_temperature;BMP_pressure;BME280_temperature;BME280_humidity;BME280_pressure;Samples;Min_cycle;Max_cycle;Signal;HPM_P1;HPM_P2
2019/05/29 00:00:32;;;;;;;13.1;11.7;;;;;;;10.11;100;94938.98;;;;
2019/05/29 00:01:35;;;;;;;13.1;11.7;;;;;;;10.11;100;94938.98;;;;
2019/05/29 00:02:36;;;;;;;13.1;11.7;;;;;;;10.11;100;94938.98;;;;
2019/05/29 00:03:37;;;;;;;13.1;11.7;;;;;;;10.11;100;94938.98;;;;
2019/05/29 00:04:38;;;;;;;12.25;10.95;;;;;;;10.2;100;94941.44;;;;
2019/05/29 00:05:39;;;;;;;12.25;10.95;;;;;;;10.2;100;94941.44;;;;
2019/05/29 00:06:40;;;;;;;12.25;10.95;;;;;;;10.2;100;94941.44;;;;
2019/05/29 00:07:41;;;;;;;12.25;10.95;;;;;;;10.2;100;94941.44;;;;
2019/05/29 00:08:42;;;;;;;12.25;10.95;;;;;;;10.2;100;94941.44;;;;
2019/05/29 00:09:43;;;;;;;12.25;10.95;;;;;;;10.2;100;94941.44;;;;
2019/05/29 00:10:44;;;;;;;12.25;10.95;;;;;;;10.2;100;94941.44;;;;
2019/05/29 00:11:45;;;;;;;12.25;10.95;;;;;;;10.2;100;94941.44;;;;
2019/05/29 00:12:46;;;;;;;12.25;10.95;;;;;;;10.2;100;94941.44;;;;
2019/05/29 00:13:48;;;;;;;12.25;10.95;;;;;;;10.2;100;94941.44;;;;
2019/05/29 00:14:49;;;;;;;14.05;12;;;;;;;10.23;100;94947.73;;;;
2019/05/29 00:15:50;;;;;;;14.05;12;;;;;;;10.23;100;94947.73;;;;
2019/05/29 00:16:51;;;;;;;14.05;12;;;;;;;10.23;100;94947.73;;;;
2019/05/29 00:17:52;;;;;;;14.05;12;;;;;;;10.23;100;94947.73;;;;
2019/05/29 00:18:53;;;;;;;14.05;12;;;;;;;10.23;100;94947.73;;;;
2019/05/29 00:19:54;;;;;;;14.05;12;;;;;;;10.23;100;94947.73;;;;
2019/05/29 00:20:55;;;;;;;14.05;12;;;;;;;10.23;100;94947.73;;;;
2019/05/29 00:21:56;;;;;;;14.05;12;;;;;;;10.23;100;94947.73;;;;
2019/05/29 00:22:57;;;;;;;14.05;12;;;;;;;10.23;100;94947.73;;;;
2019/05/29 00:23:58;;;;;;;14.05;12;;;;;;;10.23;100;94947.73;;;;
2019/05/29 00:24:59;;;;;;;10.65;9.1;;;;;;;10.25;100;94946.92;;;;
2019/05/29 00:26:00;;;;;;;10.65;9.1;;;;;;;10.25;100;94946.92;;;;
2019/05/29 00:27:01;;;;;;;10.65;9.1;;;;;;;10.25;100;94946.92;;;;
2019/05/29 00:28:03;;;;;;;10.65;9.1;;;;;;;10.25;100;94946.92;;;;
2019/05/29 00:29:04;;;;;;;10.65;9.1;;;;;;;10.25;100;94946.92;;;;
2019/05/29 00:30:05;;;;;;;10.65;9.1;;;;;;;10.25;100;94946.92;;;;
2019/05/29 00:31:06;;;;;;;10.65;9.1;;;;;;;10.25;100;94946.92;;;;
2019/05/29 00:32:07;;;;;;;10.65;9.1;;;;;;;10.25;100;94946.92;;;;
2019/05/29 00:33:08;;;;;;;10.65;9.1;;;;;;;10.25;100;94946.92;;;;
2019/05/29 00:34:09;;;;;;;10.65;9.1;;;;;;;10.25;100;94946.92;;;;
2019/05/29 00:35:10;;;;;;;10.65;9.1;;;;;;;10.25;100;94946.92;;;;
2019/05/29 00:36:11;;;;;;;9.449999;8.25;;;;;;;10.22;100;94939.47;;;;
2019/05/29 00:37:12;;;;;;;9.449999;8.25;;;;;;;10.22;100;94939.47;;;;
2019/05/29 00:38:13;;;;;;;9.449999;8.25;;;;;;;10.22;100;94939.47;;;;
2019/05/29 00:39:14;;;;;;;9.449999;8.25;;;;;;;10.22;100;94939.47;;;;
2019/05/29 00:40:15;;;;;;;9.449999;8.25;;;;;;;10.22;100;94939.47;;;;
2019/05/29 00:41:16;;;;;;;9.449999;8.25;;;;;;;10.22;100;94939.47;;;;
2019/05/29 00:42:18;;;;;;;9.449999;8.25;;;;;;;10.22;100;94939.47;;;;
2019/05/29 00:43:19;;;;;;;9.449999;8.25;;;;;;;10.22;100;94939.47;;;;
2019/05/29 00:44:20;;;;;;;9.449999;8.25;;;;;;;10.22;100;94939.47;;;;
2019/05/29 00:45:21;;;;;;;9.449999;8.25;;;;;;;10.22;100;94939.47;;;;
2019/05/29 00:46:22;;;;;;;9.449999;8.550001;;;;;;;10.22;100;94942.96;;;;
2019/05/29 00:47:23;;;;;;;9.449999;8.550001;;;;;;;10.22;100;94942.96;;;;
2019/05/29 00:48:24;;;;;;;9.449999;8.550001;;;;;;;10.22;100;94942.96;;;;
2019/05/29 00:49:25;;;;;;;9.449999;8.550001;;;;;;;10.22;100;94942.96;;;;
2019/05/29 00:50:26;;;;;;;9.449999;8.550001;;;;;;;10.22;100;94942.96;;;;
2019/05/29 00:51:27;;;;;;;9.449999;8.550001;;;;;;;10.22;100;94942.96;;;;
2019/05/29 00:52:28;;;;;;;9.449999;8.550001;;;;;;;10.22;100;94942.96;;;;
2019/05/29 00:53:29;;;;;;;9.449999;8.550001;;;;;;;10.22;100;94942.96;;;;
2019/05/29 00:54:30;;;;;;;9.449999;8.550001;;;;;;;10.22;100;94942.96;;;;
2019/05/29 00:55:31;;;;;;;9.449999;8.550001;;;;;;;10.22;100;94942.96;;;;
2019/05/29 00:56:32;;;;;;;9.449999;8.550001;;;;;;;10.22;100;94942.96;;;;
2019/05/29 00:57:34;;;;;;;8.5;7.600001;;;;;;;10.11;100;94941.68;;;;
2019/05/29 00:58:35;;;;;;;8.5;7.600001;;;;;;;10.11;100;94941.68;;;;
2019/05/29 00:59:36;;;;;;;8.5;7.600001;;;;;;;10.11;100;94941.68;;;;
2019/05/29 01:00:37;;;;;;;8.5;7.600001;;;;;;;10.11;100;94941.68;;;;
2019/05/29 01:01:38;;;;;;;8.5;7.600001;;;;;;;10.11;100;94941.68;;;;
2019/05/29 01:02:39;;;;;;;8.5;7.600001;;;;;;;10.11;100;94941.68;;;;
2019/05/29 01:03:40;;;;;;;8.5;7.600001;;;;;;;10.11;100;94941.68;;;;
2019/05/29 01:04:41;;;;;;;8.5;7.600001;;;;;;;10.11;100;94941.68;;;;
2019/05/29 01:05:42;;;;;;;8.5;7.600001;;;;;;;10.11;100;94941.68;;;;
2019/05/29 01:06:44;;;;;;;8.5;7.600001;;;;;;;10.11;100;94941.68;;;;
2019/05/29 01:07:45;;;;;;;8.850001;7.6;;;;;;;10.03;100;94938.81;;;;
2019/05/29 01:08:46;;;;;;;8.850001;7.6;;;;;;;10.03;100;94938.81;;;;
2019/05/29 01:09:47;;;;;;;8.850001;7.6;;;;;;;10.03;100;94938.81;;;;
2019/05/29 01:10:48;;;;;;;8.850001;7.6;;;;;;;10.03;100;94938.81;;;;
2019/05/29 01:11:49;;;;;;;8.850001;7.6;;;;;;;10.03;100;94938.81;;;;
2019/05/29 01:12:51;;;;;;;8.850001;7.6;;;;;;;10.03;100;94938.81;;;;
2019/05/29 01:13:52;;;;;;;8.850001;7.6;;;;;;;10.03;100;94938.81;;;;
2019/05/29 01:14:53;;;;;;;8.850001;7.6;;;;;;;10.03;100;94938.81;;;;
2019/05/29 01:15:54;;;;;;;8.850001;7.6;;;;;;;10.03;100;94938.81;;;;
2019/05/29 01:16:55;;;;;;;8.850001;7.6;;;;;;;10.03;100;94938.81;;;;
2019/05/29 01:17:56;;;;;;;11.75;7.599999;;;;;;;9.89;100;94941.09;;;;
2019/05/29 01:19:23;;;;;;;11.75;7.599999;;;;;;;9.89;100;94941.09;;;;
2019/05/29 01:20:24;;;;;;;11.75;7.599999;;;;;;;9.89;100;94941.09;;;;
2019/05/29 01:21:25;;;;;;;11.75;7.599999;;;;;;;9.89;100;94941.09;;;;
2019/05/29 01:22:26;;;;;;;11.75;7.599999;;;;;;;9.89;100;94941.09;;;;
2019/05/29 01:23:27;;;;;;;11.75;7.599999;;;;;;;9.89;100;94941.09;;;;
2019/05/29 01:24:28;;;;;;;11.75;7.599999;;;;;;;9.89;100;94941.09;;;;
2019/05/29 01:25:29;;;;;;;11.75;7.599999;;;;;;;9.89;100;94941.09;;;;
2019/05/29 01:26:30;;;;;;;11.75;7.599999;;;;;;;9.89;100;94941.09;;;;
2019/05/29 01:27:31;;;;;;;11.75;7.599999;;;;;;;9.89;100;94941.09;;;;
2019/05/29 01:28:33;;;;;;;10.9;8.700001;;;;;;;9.78;100;94945.98;;;;
2019/05/29 01:29:34;;;;;;;10.9;8.700001;;;;;;;9.78;100;94945.98;;;;
2019/05/29 01:30:36;;;;;;;10.9;8.700001;;;;;;;9.78;100;94945.98;;;;
2019/05/29 01:31:37;;;;;;;10.9;8.700001;;;;;;;9.78;100;94945.98;;;;
2019/05/29 01:32:38;;;;;;;10.9;8.700001;;;;;;;9.78;100;94945.98;;;;
2019/05/29 01:33:39;;;;;;;10.9;8.700001;;;;;;;9.78;100;94945.98;;;;
2019/05/29 01:34:40;;;;;;;10.9;8.700001;;;;;;;9.78;100;94945.98;;;;
2019/05/29 01:35:41;;;;;;;10.9;8.700001;;;;;;;9.78;100;94945.98;;;;
2019/05/29 01:36:43;;;;;;;10.9;8.700001;;;;;;;9.78;100;94945.98;;;;
2019/05/29 01:37:44;;;;;;;10.9;8.700001;;;;;;;9.78;100;94945.98;;;;
2019/05/29 01:38:45;;;;;;;10.9;8.700001;;;;;;;9.78;100;94945.98;;;;
2019/05/29 01:39:46;;;;;;;10.9;8.700001;;;;;;;9.78;100;94945.98;;;;
2019/05/29 01:40:47;;;;;;;10.9;8.700001;;;;;;;9.78;100;94945.98;;;;
2019/05/29 01:41:48;;;;;;;10.9;8.700001;;;;;;;9.78;100;94945.98;;;;
2019/05/29 01:42:49;;;;;;;10.9;8.700001;;;;;;;9.78;100;94945.98;;;;
2019/05/29 01:43:51;;;;;;;10.9;8.700001;;;;;;;9.78;100;94945.98;;;;
2019/05/29 01:44:52;;;;;;;10.9;8.700001;;;;;;;9.78;100;94945.98;;;;
2019/05/29 01:45:53;;;;;;;10.9;8.700001;;;;;;;9.78;100;94945.98;;;;
2019/05/29 01:46:54;;;;;;;10.9;8.700001;;;;;;;9.78;100;94945.98;;;;
2019/05/29 01:47:55;;;;;;;10.9;8.700001;;;;;;;9.78;100;94945.98;;;;
2019/05/29 01:48:57;;;;;;;10.9;8.700001;;;;;;;9.78;100;94945.98;;;;
2019/05/29 01:49:58;;;;;;;10.55;9.25;;;;;;;9.67;100;94956.16;;;;
2019/05/29 01:50:59;;;;;;;10.55;9.25;;;;;;;9.67;100;94956.16;;;;
2019/05/29 01:52:00;;;;;;;10.55;9.25;;;;;;;9.67;100;94956.16;;;;
2019/05/29 01:53:01;;;;;;;10.55;9.25;;;;;;;9.67;100;94956.16;;;;
2019/05/29 01:54:02;;;;;;;10.55;9.25;;;;;;;9.67;100;94956.16;;;;
2019/05/29 01:55:03;;;;;;;10.55;9.25;;;;;;;9.67;100;94956.16;;;;
2019/05/29 01:56:05;;;;;;;10.55;9.25;;;;;;;9.67;100;94956.16;;;;
2019/05/29 01:57:06;;;;;;;10.55;9.25;;;;;;;9.67;100;94956.16;;;;
2019/05/29 01:58:07;;;;;;;10.55;9.25;;;;;;;9.67;100;94956.16;;;;
2019/05/29 01:59:08;;;;;;;10.55;9.25;;;;;;;9.67;100;94956.16;;;;
2019/05/29 02:00:09;;;;;;;10.55;9.25;;;;;;;9.67;100;94956.16;;;;
2019/05/29 02:01:10;;;;;;;10.95;9.650001;;;;;;;9.62;100;94961.97;;;;
2019/05/29 02:02:12;;;;;;;10.95;9.650001;;;;;;;9.62;100;94961.97;;;;
2019/05/29 02:03:13;;;;;;;10.95;9.650001;;;;;;;9.62;100;94961.97;;;;
2019/05/29 02:04:15;;;;;;;10.95;9.650001;;;;;;;9.62;100;94961.97;;;;
2019/05/29 02:05:16;;;;;;;10.95;9.650001;;;;;;;9.62;100;94961.97;;;;
2019/05/29 02:06:17;;;;;;;10.95;9.650001;;;;;;;9.62;100;94961.97;;;;
2019/05/29 02:07:18;;;;;;;10.95;9.650001;;;;;;;9.62;100;94961.97;;;;
2019/05/29 02:08:19;;;;;;;10.95;9.650001;;;;;;;9.62;100;94961.97;;;;
2019/05/29 02:09:20;;;;;;;10.95;9.650001;;;;;;;9.62;100;94961.97;;;;
2019/05/29 02:10:21;;;;;;;10.95;9.650001;;;;;;;9.62;100;94961.97;;;;
2019/05/29 02:11:22;;;;;;;10.95;9.650001;;;;;;;9.62;100;94961.97;;;;
2019/05/29 02:12:23;;;;;;;10.95;9.650001;;;;;;;9.62;100;94961.97;;;;
2019/05/29 02:13:25;;;;;;;10.95;9.650001;;;;;;;9.62;100;94961.97;;;;
2019/05/29 02:14:26;;;;;;;10.95;9.650001;;;;;;;9.62;100;94961.97;;;;
2019/05/29 02:15:27;;;;;;;10.95;9.650001;;;;;;;9.62;100;94961.97;;;;
2019/05/29 02:16:28;;;;;;;10.95;9.650001;;;;;;;9.62;100;94961.97;;;;
2019/05/29 02:17:29;;;;;;;10.95;9.650001;;;;;;;9.62;100;94961.97;;;;
2019/05/29 02:18:30;;;;;;;10.95;9.650001;;;;;;;9.62;100;94961.97;;;;
2019/05/29 02:19:31;;;;;;;10.95;9.650001;;;;;;;9.62;100;94961.97;;;;
2019/05/29 02:20:33;;;;;;;10.95;9.650001;;;;;;;9.62;100;94961.97;;;;
2019/05/29 02:21:34;;;;;;;10.95;9.650001;;;;;;;9.62;100;94961.97;;;;
2019/05/29 02:22:35;;;;;;;11.7;10.1;;;;;;;9.61;100;94984.57;;;;
2019/05/29 02:23:36;;;;;;;11.7;10.1;;;;;;;9.61;100;94984.57;;;;
2019/05/29 02:24:37;;;;;;;11.7;10.1;;;;;;;9.61;100;94984.57;;;;
2019/05/29 02:25:38;;;;;;;11.7;10.1;;;;;;;9.61;100;94984.57;;;;
2019/05/29 02:26:39;;;;;;;11.7;10.1;;;;;;;9.61;100;94984.57;;;;
2019/05/29 02:27:40;;;;;;;11.7;10.1;;;;;;;9.61;100;94984.57;;;;
2019/05/29 02:28:41;;;;;;;11.7;10.1;;;;;;;9.61;100;94984.57;;;;
2019/05/29 02:29:43;;;;;;;11.7;10.1;;;;;;;9.61;100;94984.57;;;;
2019/05/29 02:30:44;;;;;;;11.7;10.1;;;;;;;9.61;100;94984.57;;;;
2019/05/29 02:31:45;;;;;;;11.7;10.1;;;;;;;9.61;100;94984.57;;;;
2019/05/29 02:32:46;;;;;;;11.7;10.1;;;;;;;9.61;100;94984.57;;;;
2019/05/29 02:33:47;;;;;;;11.7;10.1;;;;;;;9.61;100;94984.57;;;;
2019/05/29 02:34:48;;;;;;;11.7;10.1;;;;;;;9.61;100;94984.57;;;;
2019/05/29 02:35:49;;;;;;;11.7;10.1;;;;;;;9.61;100;94984.57;;;;
2019/05/29 02:36:50;;;;;;;11.7;10.1;;;;;;;9.61;100;94984.57;;;;
2019/05/29 02:37:51;;;;;;;11.7;10.1;;;;;;;9.61;100;94984.57;;;;
2019/05/29 02:38:53;;;;;;;11.7;10.1;;;;;;;9.61;100;94984.57;;;;
2019/05/29 02:39:54;;;;;;;11.7;10.1;;;;;;;9.61;100;94984.57;;;;
2019/05/29 02:40:55;;;;;;;11.7;10.1;;;;;;;9.61;100;94984.57;;;;
2019/05/29 02:41:56;;;;;;;11.7;10.1;;;;;;;9.61;100;94984.57;;;;
2019/05/29 02:42:57;;;;;;;13;11.1;;;;;;;9.57;100;95003.09;;;;
2019/05/29 02:43:58;;;;;;;13;11.1;;;;;;;9.57;100;95003.09;;;;
2019/05/29 02:44:59;;;;;;;13;11.1;;;;;;;9.57;100;95003.09;;;;
2019/05/29 02:46:00;;;;;;;13;11.1;;;;;;;9.57;100;95003.09;;;;
2019/05/29 02:47:02;;;;;;;13;11.1;;;;;;;9.57;100;95003.09;;;;
2019/05/29 02:48:03;;;;;;;13;11.1;;;;;;;9.57;100;95003.09;;;;
2019/05/29 02:49:04;;;;;;;13;11.1;;;;;;;9.57;100;95003.09;;;;
2019/05/29 02:50:05;;;;;;;13;11.1;;;;;;;9.57;100;95003.09;;;;
2019/05/29 02:51:06;;;;;;;13;11.1;;;;;;;9.57;100;95003.09;;;;
2019/05/29 02:52:07;;;;;;;13;11.1;;;;;;;9.57;100;95003.09;;;;
2019/05/29 02:53:08;;;;;;;13;11.1;;;;;;;9.57;100;95003.09;;;;
2019/05/29 02:54:09;;;;;;;14.35;11.8;;;;;;;9.58;100;95017.4;;;;
2019/05/29 02:55:11;;;;;;;14.35;11.8;;;;;;;9.58;100;95017.4;;;;
2019/05/29 02:56:12;;;;;;;14.35;11.8;;;;;;;9.58;100;95017.4;;;;
2019/05/29 02:57:13;;;;;;;14.35;11.8;;;;;;;9.58;100;95017.4;;;;
2019/05/29 02:58:14;;;;;;;14.35;11.8;;;;;;;9.58;100;95017.4;;;;
2019/05/29 02:59:15;;;;;;;14.35;11.8;;;;;;;9.58;100;95017.4;;;;
2019/05/29 03:00:16;;;;;;;14.35;11.8;;;;;;;9.58;100;95017.4;;;;
2019/05/29 03:01:42;;;;;;;14.35;11.8;;;;;;;9.58;100;95017.4;;;;
2019/05/29 03:02:44;;;;;;;14.35;11.8;;;;;;;9.58;100;95017.4;;;;
2019/05/29 03:03:45;;;;;;;14.35;11.8;;;;;;;9.58;100;95017.4;;;;
2019/05/29 03:04:46;;;;;;;14.35;11.8;;;;;;;9.58;100;95017.4;;;;
2019/05/29 03:05:47;;;;;;;14.35;11.8;;;;;;;9.58;100;95017.4;;;;
2019/05/29 03:06:48;;;;;;;14.35;11.8;;;;;;;9.58;100;95017.4;;;;
2019/05/29 03:07:49;;;;;;;14.35;11.8;;;;;;;9.58;100;95017.4;;;;
2019/05/29 03:08:50;;;;;;;14.35;11.8;;;;;;;9.58;100;95017.4;;;;
2019/05/29 03:09:51;;;;;;;14.35;11.8;;;;;;;9.58;100;95017.4;;;;
2019/05/29 03:10:53;;;;;;;14.35;11.8;;;;;;;9.58;100;95017.4;;;;
2019/05/29 03:11:54;;;;;;;14.35;11.8;;;;;;;9.58;100;95017.4;;;;
2019/05/29 03:12:55;;;;;;;14.35;11.8;;;;;;;9.58;100;95017.4;;;;
2019/05/29 03:13:56;;;;;;;14.35;11.8;;;;;;;9.58;100;95017.4;;;;
2019/05/29 03:14:57;;;;;;;18.5;14.3;;;;;;;9.64;100;95038.83;;;;
2019/05/29 03:15:58;;;;;;;18.5;14.3;;;;;;;9.64;100;95038.83;;;;
2019/05/29 03:16:59;;;;;;;18.5;14.3;;;;;;;9.64;100;95038.83;;;;
2019/05/29 03:18:00;;;;;;;18.5;14.3;;;;;;;9.64;100;95038.83;;;;
2019/05/29 03:19:01;;;;;;;18.5;14.3;;;;;;;9.64;100;95038.83;;;;
2019/05/29 03:20:02;;;;;;;18.5;14.3;;;;;;;9.64;100;95038.83;;;;
2019/05/29 03:21:03;;;;;;;18.5;14.3;;;;;;;9.64;100;95038.83;;;;
2019/05/29 03:22:04;;;;;;;18.5;14.3;;;;;;;9.64;100;95038.83;;;;
2019/05/29 03:23:05;;;;;;;18.5;14.3;;;;;;;9.64;100;95038.83;;;;
2019/05/29 03:24:07;;;;;;;18.5;14.3;;;;;;;9.64;100;95038.83;;;;
2019/05/29 03:25:08;;;;;;;18.5;14.3;;;;;;;9.64;100;95038.83;;;;
2019/05/29 03:26:09;;;;;;;15.8;13.4;;;;;;;9.59;100;95050.84;;;;
2019/05/29 03:27:10;;;;;;;15.8;13.4;;;;;;;9.59;100;95050.84;;;;
2019/05/29 03:28:11;;;;;;;15.8;13.4;;;;;;;9.59;100;95050.84;;;;
2019/05/29 03:29:12;;;;;;;15.8;13.4;;;;;;;9.59;100;95050.84;;;;
2019/05/29 03:30:13;;;;;;;15.8;13.4;;;;;;;9.59;100;95050.84;;;;
2019/05/29 03:31:14;;;;;;;15.8;13.4;;;;;;;9.59;100;95050.84;;;;
2019/05/29 03:32:15;;;;;;;15.8;13.4;;;;;;;9.59;100;95050.84;;;;
2019/05/29 03:33:16;;;;;;;15.8;13.4;;;;;;;9.59;100;95050.84;;;;
2019/05/29 03:34:17;;;;;;;15.8;13.4;;;;;;;9.59;100;95050.84;;;;
2019/05/29 03:35:18;;;;;;;15.8;13.4;;;;;;;9.59;100;95050.84;;;;
2019/05/29 03:36:19;;;;;;;18.65;14.5;;;;;;;9.6;100;95062.46;;;;
2019/05/29 03:37:20;;;;;;;18.65;14.5;;;;;;;9.6;100;95062.46;;;;
2019/05/29 03:38:21;;;;;;;18.65;14.5;;;;;;;9.6;100;95062.46;;;;
2019/05/29 03:39:23;;;;;;;18.65;14.5;;;;;;;9.6;100;95062.46;;;;
2019/05/29 03:40:24;;;;;;;18.65;14.5;;;;;;;9.6;100;95062.46;;;;
2019/05/29 03:41:25;;;;;;;18.65;14.5;;;;;;;9.6;100;95062.46;;;;
2019/05/29 03:42:26;;;;;;;18.65;14.5;;;;;;;9.6;100;95062.46;;;;
2019/05/29 03:43:27;;;;;;;18.65;14.5;;;;;;;9.6;100;95062.46;;;;
2019/05/29 03:44:28;;;;;;;18.65;14.5;;;;;;;9.6;100;95062.46;;;;
2019/05/29 03:45:29;;;;;;;18.65;14.5;;;;;;;9.6;100;95062.46;;;;
2019/05/29 03:46:30;;;;;;;18.65;14.5;;;;;;;9.6;100;95062.46;;;;
2019/05/29 03:47:31;;;;;;;18.4;15.15;;;;;;;9.57;100;95075.45;;;;
2019/05/29 03:48:32;;;;;;;18.4;15.15;;;;;;;9.57;100;95075.45;;;;
2019/05/29 03:49:33;;;;;;;18.4;15.15;;;;;;;9.57;100;95075.45;;;;
2019/05/29 03:50:34;;;;;;;18.4;15.15;;;;;;;9.57;100;95075.45;;;;
2019/05/29 03:51:35;;;;;;;18.4;15.15;;;;;;;9.57;100;95075.45;;;;
2019/05/29 03:52:36;;;;;;;18.4;15.15;;;;;;;9.57;100;95075.45;;;;
2019/05/29 03:53:37;;;;;;;18.4;15.15;;;;;;;9.57;100;95075.45;;;;
2019/05/29 03:54:39;;;;;;;18.4;15.15;;;;;;;9.57;100;95075.45;;;;
2019/05/29 03:55:40;;;;;;;18.4;15.15;;;;;;;9.57;100;95075.45;;;;
2019/05/29 03:56:41;;;;;;;18.4;15.15;;;;;;;9.57;100;95075.45;;;;
2019/05/29 03:57:42;;;;;;;19.7;14.65;;;;;;;9.62;100;95094.46;;;;
2019/05/29 03:58:43;;;;;;;19.7;14.65;;;;;;;9.62;100;95094.46;;;;
2019/05/29 03:59:44;;;;;;;19.7;14.65;;;;;;;9.62;100;95094.46;;;;
2019/05/29 04:00:45;;;;;;;19.7;14.65;;;;;;;9.62;100;95094.46;;;;
2019/05/29 04:01:46;;;;;;;19.7;14.65;;;;;;;9.62;100;95094.46;;;;
2019/05/29 04:02:47;;;;;;;19.7;14.65;;;;;;;9.62;100;95094.46;;;;
2019/05/29 04:03:48;;;;;;;19.7;14.65;;;;;;;9.62;100;95094.46;;;;
2019/05/29 04:04:49;;;;;;;19.7;14.65;;;;;;;9.62;100;95094.46;;;;
2019/05/29 04:05:50;;;;;;;19.7;14.65;;;;;;;9.62;100;95094.46;;;;
2019/05/29 04:06:51;;;;;;;19.7;14.65;;;;;;;9.62;100;95094.46;;;;
2019/05/29 04:07:52;;;;;;;17.85;15.4;;;;;;;9.64;100;95109.46;;;;
2019/05/29 04:08:54;;;;;;;17.85;15.4;;;;;;;9.64;100;95109.46;;;;
2019/05/29 04:09:55;;;;;;;17.85;15.4;;;;;;;9.64;100;95109.46;;;;
2019/05/29 04:10:56;;;;;;;17.85;15.4;;;;;;;9.64;100;95109.46;;;;
2019/05/29 04:11:57;;;;;;;17.85;15.4;;;;;;;9.64;100;95109.46;;;;
2019/05/29 04:12:59;;;;;;;17.85;15.4;;;;;;;9.64;100;95109.46;;;;
2019/05/29 04:14:00;;;;;;;17.85;15.4;;;;;;;9.64;100;95109.46;;;;
2019/05/29 04:15:01;;;;;;;17.85;15.4;;;;;;;9.64;100;95109.46;;;;
2019/05/29 04:16:02;;;;;;;17.85;15.4;;;;;;;9.64;100;95109.46;;;;
2019/05/29 04:17:03;;;;;;;17.85;15.4;;;;;;;9.64;100;95109.46;;;;
2019/05/29 04:18:04;;;;;;;17.85;15.4;;;;;;;9.64;100;95109.46;;;;
2019/05/29 04:19:06;;;;;;;20.2;15.2;;;;;;;9.76;100;95122.81;;;;
2019/05/29 04:20:07;;;;;;;20.2;15.2;;;;;;;9.76;100;95122.81;;;;
2019/05/29 04:21:08;;;;;;;20.2;15.2;;;;;;;9.76;100;95122.81;;;;
2019/05/29 04:22:09;;;;;;;20.2;15.2;;;;;;;9.76;100;95122.81;;;;
2019/05/29 04:23:10;;;;;;;20.2;15.2;;;;;;;9.76;100;95122.81;;;;
2019/05/29 04:24:11;;;;;;;20.2;15.2;;;;;;;9.76;100;95122.81;;;;
2019/05/29 04:25:12;;;;;;;20.2;15.2;;;;;;;9.76;100;95122.81;;;;
2019/05/29 04:26:13;;;;;;;20.2;15.2;;;;;;;9.76;100;95122.81;;;;
2019/05/29 04:27:14;;;;;;;20.2;15.2;;;;;;;9.76;100;95122.81;;;;
2019/05/29 04:28:16;;;;;;;20.2;15.2;;;;;;;9.76;100;95122.81;;;;
2019/05/29 04:29:17;;;;;;;18.5;15.25;;;;;;;9.82;100;95133.61;;;;
2019/05/29 04:30:18;;;;;;;18.5;15.25;;;;;;;9.82;100;95133.61;;;;
2019/05/29 04:31:19;;;;;;;18.5;15.25;;;;;;;9.82;100;95133.61;;;;
2019/05/29 04:32:20;;;;;;;18.5;15.25;;;;;;;9.82;100;95133.61;;;;
2019/05/29 04:33:21;;;;;;;18.5;15.25;;;;;;;9.82;100;95133.61;;;;
2019/05/29 04:34:22;;;;;;;18.5;15.25;;;;;;;9.82;100;95133.61;;;;
2019/05/29 04:35:23;;;;;;;18.5;15.25;;;;;;;9.82;100;95133.61;;;;
2019/05/29 04:36:24;;;;;;;18.5;15.25;;;;;;;9.82;100;95133.61;;;;
2019/05/29 04:37:25;;;;;;;18.5;15.25;;;;;;;9.82;100;95133.61;;;;
2019/05/29 04:38:26;;;;;;;18.5;15.25;;;;;;;9.82;100;95133.61;;;;
2019/05/29 04:39:27;;;;;;;18.5;15.25;;;;;;;9.82;100;95133.61;;;;
2019/05/29 04:40:28;;;;;;;18.9;14.45;;;;;;;10;100;95140.61;;;;
2019/05/29 04:41:30;;;;;;;18.9;14.45;;;;;;;10;100;95140.61;;;;
2019/05/29 04:42:31;;;;;;;18.9;14.45;;;;;;;10;100;95140.61;;;;
2019/05/29 04:43:32;;;;;;;18.9;14.45;;;;;;;10;100;95140.61;;;;
2019/05/29 04:44:33;;;;;;;18.9;14.45;;;;;;;10;100;95140.61;;;;
2019/05/29 04:45:34;;;;;;;18.9;14.45;;;;;;;10;100;95140.61;;;;
2019/05/29 04:46:35;;;;;;;18.9;14.45;;;;;;;10;100;95140.61;;;;
2019/05/29 04:47:36;;;;;;;18.9;14.45;;;;;;;10;100;95140.61;;;;
2019/05/29 04:48:37;;;;;;;18.9;14.45;;;;;;;10;100;95140.61;;;;
2019/05/29 04:49:38;;;;;;;18.9;14.45;;;;;;;10;100;95140.61;;;;
2019/05/29 04:50:39;;;;;;;20.3;16.2;;;;;;;10.23;100;95157.76;;;;
2019/05/29 04:51:40;;;;;;;20.3;16.2;;;;;;;10.23;100;95157.76;;;;
2019/05/29 04:52:41;;;;;;;20.3;16.2;;;;;;;10.23;100;95157.76;;;;
2019/05/29 04:53:42;;;;;;;20.3;16.2;;;;;;;10.23;100;95157.76;;;;
2019/05/29 04:54:44;;;;;;;20.3;16.2;;;;;;;10.23;100;95157.76;;;;
2019/05/29 04:55:45;;;;;;;20.3;16.2;;;;;;;10.23;100;95157.76;;;;
2019/05/29 04:56:46;;;;;;;20.3;16.2;;;;;;;10.23;100;95157.76;;;;
2019/05/29 04:57:47;;;;;;;20.3;16.2;;;;;;;10.23;100;95157.76;;;;
2019/05/29 04:58:48;;;;;;;20.3;16.2;;;;;;;10.23;100;95157.76;;;;
2019/05/29 04:59:49;;;;;;;20.3;16.2;;;;;;;10.23;100;95157.76;;;;
2019/05/29 05:00:50;;;;;;;18;14.85;;;;;;;10.55;100;95168.44;;;;
2019/05/29 05:01:51;;;;;;;18;14.85;;;;;;;10.55;100;95168.44;;;;
2019/05/29 05:02:52;;;;;;;18;14.85;;;;;;;10.55;100;95168.44;;;;
2019/05/29 05:03:53;;;;;;;18;14.85;;;;;;;10.55;100;95168.44;;;;
2019/05/29 05:04:54;;;;;;;18;14.85;;;;;;;10.55;100;95168.44;;;;
2019/05/29 05:05:55;;;;;;;18;14.85;;;;;;;10.55;100;95168.44;;;;
2019/05/29 05:06:56;;;;;;;18;14.85;;;;;;;10.55;100;95168.44;;;;
2019/05/29 05:07:57;;;;;;;18;14.85;;;;;;;10.55;100;95168.44;;;;
2019/05/29 05:08:58;;;;;;;18;14.85;;;;;;;10.55;100;95168.44;;;;
2019/05/29 05:09:59;;;;;;;18;14.85;;;;;;;10.55;100;95168.44;;;;
2019/05/29 05:11:01;;;;;;;18;14.85;;;;;;;10.55;100;95168.44;;;;
2019/05/29 05:12:02;;;;;;;15.9;13.9;;;;;;;10.77;100;95181.7;;;;
2019/05/29 05:13:03;;;;;;;15.9;13.9;;;;;;;10.77;100;95181.7;;;;
2019/05/29 05:14:04;;;;;;;15.9;13.9;;;;;;;10.77;100;95181.7;;;;
2019/05/29 05:15:05;;;;;;;15.9;13.9;;;;;;;10.77;100;95181.7;;;;
2019/05/29 05:16:07;;;;;;;15.9;13.9;;;;;;;10.77;100;95181.7;;;;
2019/05/29 05:17:08;;;;;;;15.9;13.9;;;;;;;10.77;100;95181.7;;;;
2019/05/29 05:18:09;;;;;;;15.9;13.9;;;;;;;10.77;100;95181.7;;;;
2019/05/29 05:19:10;;;;;;;15.9;13.9;;;;;;;10.77;100;95181.7;;;;
2019/05/29 05:20:11;;;;;;;15.9;13.9;;;;;;;10.77;100;95181.7;;;;
2019/05/29 05:21:12;;;;;;;15.9;13.9;;;;;;;10.77;100;95181.7;;;;
2019/05/29 05:22:13;;;;;;;16.25;13.75;;;;;;;11.01;100;95193.95;;;;
2019/05/29 05:23:14;;;;;;;16.25;13.75;;;;;;;11.01;100;95193.95;;;;
2019/05/29 05:24:15;;;;;;;16.25;13.75;;;;;;;11.01;100;95193.95;;;;
2019/05/29 05:25:16;;;;;;;16.25;13.75;;;;;;;11.01;100;95193.95;;;;
2019/05/29 05:26:17;;;;;;;16.25;13.75;;;;;;;11.01;100;95193.95;;;;
2019/05/29 05:27:18;;;;;;;16.25;13.75;;;;;;;11.01;100;95193.95;;;;
2019/05/29 05:28:19;;;;;;;16.25;13.75;;;;;;;11.01;100;95193.95;;;;
2019/05/29 05:29:20;;;;;;;16.25;13.75;;;;;;;11.01;100;95193.95;;;;
2019/05/29 05:30:22;;;;;;;16.25;13.75;;;;;;;11.01;100;95193.95;;;;
2019/05/29 05:31:23;;;;;;;16.25;13.75;;;;;;;11.01;100;95193.95;;;;
2019/05/29 05:32:24;;;;;;;16.25;13.75;;;;;;;11.01;100;95193.95;;;;
2019/05/29 05:33:25;;;;;;;18.65;14.7;;;;;;;11.29;100;95201.76;;;;
2019/05/29 05:34:26;;;;;;;18.65;14.7;;;;;;;11.29;100;95201.76;;;;
2019/05/29 05:35:27;;;;;;;18.65;14.7;;;;;;;11.29;100;95201.76;;;;
2019/05/29 05:36:28;;;;;;;18.65;14.7;;;;;;;11.29;100;95201.76;;;;
2019/05/29 05:37:29;;;;;;;18.65;14.7;;;;;;;11.29;100;95201.76;;;;
2019/05/29 05:38:30;;;;;;;18.65;14.7;;;;;;;11.29;100;95201.76;;;;
2019/05/29 05:39:31;;;;;;;18.65;14.7;;;;;;;11.29;100;95201.76;;;;
2019/05/29 05:40:32;;;;;;;18.65;14.7;;;;;;;11.29;100;95201.76;;;;
2019/05/29 05:41:33;;;;;;;18.65;14.7;;;;;;;11.29;100;95201.76;;;;
2019/05/29 05:42:34;;;;;;;18.65;14.7;;;;;;;11.29;100;95201.76;;;;
2019/05/29 05:43:36;;;;;;;22.8;13.05;;;;;;;11.6;100;95213.84;;;;
2019/05/29 05:44:37;;;;;;;22.8;13.05;;;;;;;11.6;100;95213.84;;;;
2019/05/29 05:45:38;;;;;;;22.8;13.05;;;;;;;11.6;100;95213.84;;;;
2019/05/29 05:46:39;;;;;;;22.8;13.05;;;;;;;11.6;100;95213.84;;;;
2019/05/29 05:47:40;;;;;;;22.8;13.05;;;;;;;11.6;100;95213.84;;;;
2019/05/29 05:48:41;;;;;;;22.8;13.05;;;;;;;11.6;100;95213.84;;;;
2019/05/29 05:49:42;;;;;;;22.8;13.05;;;;;;;11.6;100;95213.84;;;;
2019/05/29 05:50:43;;;;;;;22.8;13.05;;;;;;;11.6;100;95213.84;;;;
2019/05/29 05:51:44;;;;;;;22.8;13.05;;;;;;;11.6;100;95213.84;;;;
2019/05/29 05:52:45;;;;;;;22.8;13.05;;;;;;;11.6;100;95213.84;;;;
2019/05/29 05:53:46;;;;;;;18.05;12.9;;;;;;;11.73;100;95231.55;;;;
2019/05/29 05:54:47;;;;;;;18.05;12.9;;;;;;;11.73;100;95231.55;;;;
2019/05/29 05:55:48;;;;;;;18.05;12.9;;;;;;;11.73;100;95231.55;;;;
2019/05/29 05:56:49;;;;;;;18.05;12.9;;;;;;;11.73;100;95231.55;;;;
2019/05/29 05:57:51;;;;;;;18.05;12.9;;;;;;;11.73;100;95231.55;;;;
2019/05/29 05:58:52;;;;;;;18.05;12.9;;;;;;;11.73;100;95231.55;;;;
2019/05/29 05:59:53;;;;;;;18.05;12.9;;;;;;;11.73;100;95231.55;;;;
2019/05/29 06:00:54;;;;;;;18.05;12.9;;;;;;;11.73;100;95231.55;;;;
2019/05/29 06:01:55;;;;;;;18.05;12.9;;;;;;;11.73;100;95231.55;;;;
2019/05/29 06:02:56;;;;;;;18.05;12.9;;;;;;;11.73;100;95231.55;;;;
2019/05/29 06:03:57;;;;;;;18.05;12.9;;;;;;;11.73;100;95231.55;;;;
2019/05/29 06:04:58;;;;;;;16;13.85;;;;;;;11.94;100;95242.61;;;;
2019/05/29 06:05:59;;;;;;;16;13.85;;;;;;;11.94;100;95242.61;;;;
2019/05/29 06:07:00;;;;;;;16;13.85;;;;;;;11.94;100;95242.61;;;;
2019/05/29 06:08:01;;;;;;;16;13.85;;;;;;;11.94;100;95242.61;;;;
2019/05/29 06:09:03;;;;;;;16;13.85;;;;;;;11.94;100;95242.61;;;;